BAW035 EBBR-EDDF
Flight info
| Callsign | BAW035 |
|---|---|
| Flight time | N/A |
| Altitude | 23000 |
| Route | SPI T180 NIVNU T847 IMCOM IMCOM1D |
| Aircraft | B772/H-SDE2E3FGHIJ5LORVWXY/LB1D1 |
Departure
| Time | N/A |
|---|---|
| Airport | Brussels Airport (EBBR) |
Arrival
| Time | 2026-04-14 07:51 |
|---|---|
| Airport | Frankfurt Main Airport (EDDF) |
| Time | Latitude | Longitude | Altitude | Speed | Heading |
|---|---|---|---|---|---|
| 2026-04-14 07:38 | 50.14762 | 8.58762 | 9083 ft | 282 kts | 70° |
| 2026-04-14 07:39 | 50.17283 | 8.69367 | 8738 ft | 283 kts | 70° |
| 2026-04-14 07:40 | 50.19040 | 8.76780 | 8506 ft | 283 kts | 70° |
| 2026-04-14 07:40 | 50.19723 | 8.79665 | 8404 ft | 283 kts | 70° |
| 2026-04-14 07:40 | 50.20403 | 8.82551 | 8305 ft | 283 kts | 70° |
| 2026-04-14 07:41 | 50.21074 | 8.85397 | 8187 ft | 277 kts | 70° |
| 2026-04-14 07:41 | 50.21735 | 8.88212 | 8111 ft | 274 kts | 70° |
| 2026-04-14 07:41 | 50.22393 | 8.91016 | 8025 ft | 275 kts | 70° |
| 2026-04-14 07:41 | 50.23040 | 8.93782 | 7940 ft | 276 kts | 70° |
| 2026-04-14 07:42 | 50.23701 | 8.96605 | 7803 ft | 278 kts | 70° |
| 2026-04-14 07:42 | 50.24113 | 8.99533 | 7376 ft | 277 kts | 91° |
| 2026-04-14 07:42 | 50.23672 | 9.02364 | 6933 ft | 262 kts | 120° |
| 2026-04-14 07:42 | 50.22498 | 9.04362 | 6470 ft | 245 kts | 150° |
| 2026-04-14 07:43 | 50.20929 | 9.05123 | 6046 ft | 234 kts | 181° |
| 2026-04-14 07:43 | 50.19352 | 9.04534 | 5581 ft | 239 kts | 206° |
| 2026-04-14 07:43 | 50.17827 | 9.03360 | 5195 ft | 245 kts | 208° |
| 2026-04-14 07:43 | 50.16311 | 9.02176 | 4794 ft | 239 kts | 208° |
| 2026-04-14 07:44 | 50.14868 | 9.01057 | 4315 ft | 226 kts | 208° |
| 2026-04-14 07:44 | 50.13632 | 8.99706 | 3822 ft | 211 kts | 235° |
| 2026-04-14 07:44 | 50.13101 | 8.97666 | 3605 ft | 197 kts | 259° |
| 2026-04-14 07:44 | 50.12753 | 8.95652 | 3486 ft | 186 kts | 255° |
| 2026-04-14 07:45 | 50.12340 | 8.93764 | 3497 ft | 183 kts | 253° |
| 2026-04-14 07:45 | 50.11911 | 8.91912 | 3493 ft | 181 kts | 253° |
| 2026-04-14 07:45 | 50.11480 | 8.90079 | 3519 ft | 180 kts | 253° |
| 2026-04-14 07:45 | 50.11043 | 8.88234 | 3490 ft | 182 kts | 253° |
| 2026-04-14 07:46 | 50.10607 | 8.86392 | 3485 ft | 181 kts | 253° |
| 2026-04-14 07:46 | 50.10171 | 8.84552 | 3502 ft | 180 kts | 253° |
| 2026-04-14 07:46 | 50.09736 | 8.82724 | 3500 ft | 180 kts | 253° |
| 2026-04-14 07:46 | 50.09298 | 8.80887 | 3322 ft | 182 kts | 253° |
| 2026-04-14 07:47 | 50.08868 | 8.79080 | 3062 ft | 171 kts | 253° |
| 2026-04-14 07:47 | 50.08471 | 8.77412 | 2878 ft | 162 kts | 253° |
| 2026-04-14 07:47 | 50.08086 | 8.75785 | 2666 ft | 158 kts | 253° |
| 2026-04-14 07:47 | 50.07703 | 8.74183 | 2451 ft | 158 kts | 253° |
| 2026-04-14 07:48 | 50.07319 | 8.72567 | 2237 ft | 159 kts | 253° |
| 2026-04-14 07:48 | 50.06935 | 8.70950 | 2037 ft | 160 kts | 253° |
| 2026-04-14 07:48 | 50.06549 | 8.69330 | 1811 ft | 159 kts | 252° |
| 2026-04-14 07:48 | 50.06164 | 8.67717 | 1609 ft | 159 kts | 252° |
| 2026-04-14 07:49 | 50.05783 | 8.66117 | 1380 ft | 152 kts | 252° |
| 2026-04-14 07:49 | 50.05436 | 8.64661 | 1189 ft | 136 kts | 252° |
| 2026-04-14 07:49 | 50.05124 | 8.63344 | 1042 ft | 127 kts | 253° |
| 2026-04-14 07:49 | 50.04814 | 8.62045 | 867 ft | 128 kts | 251° |
| 2026-04-14 07:50 | 50.04503 | 8.60753 | 684 ft | 126 kts | 251° |
| 2026-04-14 07:50 | 50.04196 | 8.59465 | 526 ft | 127 kts | 251° |
| 2026-04-14 07:50 | 50.03889 | 8.58196 | 397 ft | 127 kts | 252° |
| 2026-04-14 07:50 | 50.03612 | 8.57005 | 362 ft | 98 kts | 249° |
| 2026-04-14 07:51 | 50.03460 | 8.56365 | 360 ft | 31 kts | 252° |
| 2026-04-14 07:51 | 50.03438 | 8.56088 | 357 ft | 24 kts | 272° |
| 2026-04-14 07:51 | 50.03447 | 8.55957 | 357 ft | 3 kts | 279° |
| 2026-04-14 07:51 | 50.03451 | 8.55922 | 351 ft | 3 kts | 279° |
| 2026-04-14 07:52 | 50.03455 | 8.55880 | 357 ft | 6 kts | 278° |
| 2026-04-14 07:52 | 50.03462 | 8.55813 | 356 ft | 8 kts | 279° |
| 2026-04-14 07:52 | 50.03487 | 8.55718 | 355 ft | 10 kts | 327° |
| 2026-04-14 07:52 | 50.03552 | 8.55740 | 359 ft | 10 kts | 47° |
| 2026-04-14 07:53 | 50.03583 | 8.55841 | 360 ft | 10 kts | 66° |
| 2026-04-14 07:53 | 50.03609 | 8.55946 | 364 ft | 10 kts | 71° |
| 2026-04-14 07:53 | 50.03634 | 8.56059 | 363 ft | 11 kts | 71° |
| 2026-04-14 07:53 | 50.03661 | 8.56178 | 359 ft | 12 kts | 70° |
| 2026-04-14 07:54 | 50.03696 | 8.56325 | 362 ft | 17 kts | 69° |
| 2026-04-14 07:54 | 50.03743 | 8.56519 | 363 ft | 20 kts | 69° |
| 2026-04-14 07:54 | 50.03792 | 8.56723 | 365 ft | 20 kts | 69° |
| 2026-04-14 07:54 | 50.03842 | 8.56928 | 366 ft | 20 kts | 69° |
| 2026-04-14 07:55 | 50.03890 | 8.57132 | 368 ft | 20 kts | 70° |
| 2026-04-14 07:55 | 50.03939 | 8.57336 | 369 ft | 20 kts | 70° |
| 2026-04-14 07:55 | 50.03987 | 8.57542 | 372 ft | 20 kts | 70° |
| 2026-04-14 07:55 | 50.04035 | 8.57747 | 372 ft | 20 kts | 70° |
| 2026-04-14 07:56 | 50.04083 | 8.57946 | 376 ft | 17 kts | 69° |
| 2026-04-14 07:56 | 50.04126 | 8.58104 | 375 ft | 14 kts | 54° |
| 2026-04-14 07:56 | 50.04199 | 8.58180 | 372 ft | 11 kts | 26° |
| 2026-04-14 07:56 | 50.04276 | 8.58202 | 371 ft | 11 kts | 350° |
| 2026-04-14 07:57 | 50.04352 | 8.58164 | 372 ft | 11 kts | 341° |
| 2026-04-14 07:57 | 50.04420 | 8.58127 | 372 ft | 9 kts | 340° |
| 2026-04-14 07:57 | 50.04487 | 8.58088 | 373 ft | 11 kts | 339° |
| 2026-04-14 07:57 | 50.04558 | 8.58046 | 370 ft | 12 kts | 339° |
| 2026-04-14 07:58 | 50.04627 | 8.58005 | 367 ft | 5 kts | 339° |
| 2026-04-14 07:58 | 50.04637 | 8.57999 | 365 ft | 1 kts | 340° |
| 2026-04-14 07:58 | 50.04640 | 8.57998 | 365 ft | 0 kts | 340° |
| 2026-04-14 08:00 | 50.04643 | 8.57996 | 366 ft | 4 kts | 340° |
| 2026-04-14 08:00 | 50.04684 | 8.57973 | 370 ft | 9 kts | 340° |
| 2026-04-14 08:00 | 50.04748 | 8.57967 | 370 ft | 9 kts | 26° |
| 2026-04-14 08:01 | 50.04795 | 8.58039 | 369 ft | 6 kts | 62° |
| 2026-04-14 08:01 | 50.04823 | 8.58122 | 367 ft | 11 kts | 64° |
| 2026-04-14 08:01 | 50.04853 | 8.58234 | 366 ft | 10 kts | 72° |
| 2026-04-14 08:01 | 50.04875 | 8.58345 | 370 ft | 12 kts | 72° |
| 2026-04-14 08:02 | 50.04897 | 8.58451 | 368 ft | 9 kts | 71° |
| 2026-04-14 08:02 | 50.04915 | 8.58525 | 368 ft | 7 kts | 69° |
| 2026-04-14 08:02 | 50.04950 | 8.58569 | 370 ft | 7 kts | 6° |
| 2026-04-14 08:02 | 50.04979 | 8.58559 | 370 ft | 3 kts | 341° |
| 2026-04-14 08:03 | 50.04994 | 8.58550 | 364 ft | 2 kts | 340° |
| 2026-04-14 08:03 | 50.05005 | 8.58544 | 369 ft | 1 kts | 340° |
| 2026-04-14 08:03 | 50.05013 | 8.58540 | 364 ft | 1 kts | 340° |
| 2026-04-14 08:03 | 50.05018 | 8.58537 | 364 ft | 0 kts | 340° |